Time;durP1;ratioP1;P1;durP2;ratioP2;P2;SDS_P1;SDS_P2;PMS_P1;PMS_P2;Temp;Humidity;BMP_temperature;BMP_pressure;BME280_temperature;BME280_humidity;BME280_pressure;Samples;Min_cycle;Max_cycle;Signal;HPM_P1;HPM_P2
2022/06/09 00:01:14;;;;;;;1999.90;999.90;;;;;;;20.44;58.00;94813.69;5011629;28;20524;-69
2022/06/09 00:03:45;;;;;;;1999.90;999.90;;;;;;;20.12;57.91;94765.59;5013106;28;20038;-69
2022/06/09 00:06:12;;;;;;;1999.90;999.90;;;;;;;20.16;57.34;94762.91;5012708;28;20069;-69
2022/06/09 00:08:43;;;;;;;1999.90;999.90;;;;;;;20.42;57.62;94822.19;5011188;28;20030;-69
2022/06/09 00:11:12;;;;;;;1999.90;999.90;;;;;;;20.07;58.47;94789.47;5012900;28;20052;-69
2022/06/09 00:13:38;;;;;;;1999.90;999.90;;;;;;;19.81;58.18;94748.00;5012775;28;20434;-69
2022/06/09 00:16:05;;;;;;;1999.90;999.90;;;;;;;20.23;58.46;94793.47;5012579;28;20083;-68
2022/06/09 00:18:30;;;;;;;1999.90;999.90;;;;;;;20.00;58.29;94768.56;5011415;28;20471;-68
2022/06/09 00:20:56;;;;;;;1999.90;999.90;;;;;;;19.91;58.42;94750.00;5012592;28;20034;-69
2022/06/09 00:23:21;;;;;;;1999.90;999.90;;;;;;;19.72;58.30;94731.31;5012791;28;20105;-69
2022/06/09 00:25:47;;;;;;;1999.90;999.90;;;;;;;19.83;58.65;94775.38;5012591;28;20148;-69
2022/06/09 00:28:13;;;;;;;1999.90;999.90;;;;;;;19.66;58.53;94743.63;5012114;28;20474;-69
2022/06/09 00:30:39;;;;;;;1999.90;999.90;;;;;;;19.60;59.23;94745.06;5012534;28;20443;-69
2022/06/09 00:33:04;;;;;;;1999.90;999.90;;;;;;;19.98;59.13;94795.94;5012291;28;20033;-68
2022/06/09 00:35:29;;;;;;;1999.90;999.90;;;;;;;19.56;59.21;94755.81;5012348;28;20659;-69
2022/06/09 00:37:55;;;;;;;1999.90;999.90;;;;;;;20.10;59.40;94821.13;5012130;28;20036;-69
2022/06/09 00:40:21;;;;;;;1999.90;999.90;;;;;;;20.21;59.61;94838.97;5011988;28;20529;-69
2022/06/09 00:42:46;;;;;;;1999.90;999.90;;;;;;;19.89;59.31;94776.59;5012468;28;20025;-69
2022/06/09 00:45:23;;;;;;;1999.90;999.90;;;;;;;20.35;59.29;94832.13;5011045;28;20025;-68
2022/06/09 00:47:51;;;;;;;1999.90;999.90;;;;;;;19.91;59.22;94778.91;5012478;28;20042;-69
2022/06/09 00:50:21;;;;;;;1999.90;999.90;;;;;;;19.60;59.35;94783.63;5011560;28;20041;-69
2022/06/09 00:52:55;;;;;;;1999.90;999.90;;;;;;;19.91;59.11;94792.41;5012155;28;20053;-68
2022/06/09 00:55:24;;;;;;;1999.90;999.90;;;;;;;20.17;59.10;94810.41;5011973;28;20026;-69
2022/06/09 00:57:54;;;;;;;1999.90;999.90;;;;;;;19.94;59.01;94786.25;5011817;28;20036;-68
2022/06/09 01:00:23;;;;;;;1999.90;999.90;;;;;;;19.93;59.17;94779.31;5011632;28;20018;-68
2022/06/09 01:02:52;;;;;;;1999.90;999.90;;;;;;;19.87;59.03;94786.22;5011877;28;20021;-68
2022/06/09 01:05:21;;;;;;;1999.90;999.90;;;;;;;19.87;59.40;94792.38;5011769;28;20036;-69
2022/06/09 01:07:50;;;;;;;1999.90;999.90;;;;;;;19.70;59.42;94791.03;5011626;28;20137;-69
2022/06/09 01:10:15;;;;;;;1999.90;999.90;;;;;;;19.23;60.36;94778.94;5010988;28;20104;-68
2022/06/09 01:12:44;;;;;;;1999.90;999.90;;;;;;;19.22;60.63;94790.88;5011500;28;20108;-68
2022/06/09 01:15:13;;;;;;;1999.90;999.90;;;;;;;19.65;60.67;94794.06;5011449;28;20479;-69
2022/06/09 01:18:04;;;;;;;1999.90;999.90;;;;;;;19.12;60.83;94788.06;5011796;28;20658;-69
2022/06/09 01:20:35;;;;;;;1999.90;999.90;;;;;;;19.93;60.49;94850.28;5011554;28;20030;-69
2022/06/09 01:23:03;;;;;;;1999.90;999.90;;;;;;;19.13;62.50;94852.38;5011474;28;20021;-69
2022/06/09 01:25:47;;;;;;;1999.90;999.90;;;;;;;18.37;65.68;94854.31;5010143;28;20034;-69
2022/06/09 01:28:50;;;;;;;1999.90;999.90;;;;;;;17.50;69.24;94853.91;5011069;28;20109;-69
2022/06/09 01:31:29;;;;;;;1999.90;999.90;;;;;;;18.33;66.77;94850.81;5010269;28;20032;-69
2022/06/09 01:34:08;;;;;;;1999.90;999.90;;;;;;;18.24;66.81;94845.66;5011067;28;20110;-69
2022/06/09 01:36:50;;;;;;;1999.90;999.90;;;;;;;17.98;67.56;94853.66;5009570;28;20060;-69
2022/06/09 01:39:15;;;;;;;1999.90;999.90;;;;;;;17.71;67.31;94809.72;5010732;28;20026;-69
2022/06/09 01:41:48;;;;;;;1999.90;999.90;;;;;;;18.11;65.99;94783.16;5010986;28;20026;-69
2022/06/09 01:44:17;;;;;;;1999.90;999.90;;;;;;;17.19;68.21;94773.41;5010706;28;20030;-69
2022/06/09 01:46:44;;;;;;;1999.90;999.90;;;;;;;16.98;69.78;94787.97;5011007;28;20032;-70
2022/06/09 01:49:15;;;;;;;1999.90;999.90;;;;;;;17.32;68.84;94780.97;5010713;28;20109;-69
2022/06/09 01:51:43;;;;;;;1999.90;999.90;;;;;;;17.74;67.78;94790.22;5011161;28;20570;-69
2022/06/09 01:54:23;;;;;;;1999.90;999.90;;;;;;;18.11;66.64;94796.59;5010864;28;20037;-69
2022/06/09 01:57:07;;;;;;;1999.90;999.90;;;;;;;17.72;68.53;94840.88;5010803;28;20022;-70
2022/06/09 01:59:40;;;;;;;1999.90;999.90;;;;;;;17.46;68.39;94804.66;5010394;28;20394;-69
2022/06/09 02:02:38;;;;;;;1999.90;999.90;;;;;;;17.61;69.42;94854.13;5010670;28;20026;-69
2022/06/09 02:05:10;;;;;;;1999.90;999.90;;;;;;;16.67;70.64;94755.81;5010037;28;20034;-69
2022/06/09 02:07:37;;;;;;;1999.90;999.90;;;;;;;16.50;73.59;94848.28;5010739;28;20040;-70
2022/06/09 02:10:20;;;;;;;1999.90;999.90;;;;;;;16.79;72.57;94844.38;5010463;28;20486;-69
2022/06/09 02:12:46;;;;;;;1999.90;999.90;;;;;;;16.56;72.04;94787.81;5010763;28;20037;-69
2022/06/09 02:15:20;;;;;;;1999.90;999.90;;;;;;;16.54;73.11;94827.69;5010835;28;20032;-71
2022/06/09 02:17:50;;;;;;;1999.90;999.90;;;;;;;16.60;73.15;94850.44;5010599;28;20087;-69
2022/06/09 02:20:18;;;;;;;1999.90;999.90;;;;;;;16.21;73.84;94793.16;5009630;28;20033;-69
2022/06/09 02:22:43;;;;;;;1999.90;999.90;;;;;;;16.84;71.80;94768.91;5010444;28;20029;-68
2022/06/09 02:25:09;;;;;;;1999.90;999.90;;;;;;;17.27;71.38;94847.69;5010358;28;20053;-69
2022/06/09 02:27:34;;;;;;;1999.90;999.90;;;;;;;16.98;70.10;94776.44;5010325;28;20026;-69
2022/06/09 02:30:00;;;;;;;1999.90;999.90;;;;;;;17.03;70.48;94827.22;5010066;28;20429;-69
2022/06/09 02:32:26;;;;;;;1999.90;999.90;;;;;;;16.84;71.31;94783.09;5009935;28;20079;-69
2022/06/09 02:34:51;;;;;;;1999.90;999.90;;;;;;;16.58;71.96;94813.22;5010497;28;20017;-69
2022/06/09 02:37:17;;;;;;;1999.90;999.90;;;;;;;16.58;72.19;94798.97;5010353;28;20022;-69
2022/06/09 02:39:42;;;;;;;1999.90;999.90;;;;;;;16.49;72.58;94799.19;5009928;28;20116;-69
2022/06/09 02:42:07;;;;;;;1999.90;999.90;;;;;;;16.98;71.80;94863.19;5009976;28;20115;-69
2022/06/09 02:44:33;;;;;;;1999.90;999.90;;;;;;;16.15;73.18;94783.81;5010077;28;20022;-69
2022/06/09 02:46:59;;;;;;;1999.90;999.90;;;;;;;16.23;74.77;94837.31;5010212;28;20030;-69
2022/06/09 02:49:24;;;;;;;1999.90;999.90;;;;;;;15.76;74.37;94767.53;5009680;28;20024;-69
2022/06/09 02:51:49;;;;;;;1999.90;999.90;;;;;;;16.19;73.47;94800.78;5010179;28;20022;-69
2022/06/09 02:54:15;;;;;;;1999.90;999.90;;;;;;;16.53;72.13;94793.88;5009678;28;20382;-68
2022/06/09 02:56:42;;;;;;;1999.90;999.90;;;;;;;16.85;70.36;94805.38;5010114;28;20537;-69
2022/06/09 02:59:07;;;;;;;1999.90;999.90;;;;;;;16.46;72.12;94780.31;5009526;28;20499;-69
2022/06/09 03:01:33;;;;;;;1999.90;999.90;;;;;;;16.57;70.90;94792.06;5007588;28;20033;-70
2022/06/09 03:03:58;;;;;;;1999.90;999.90;;;;;;;17.39;69.68;94850.22;5009223;28;20033;-69
2022/06/09 03:06:24;;;;;;;1999.90;999.90;;;;;;;16.99;69.28;94776.09;5009861;28;20029;-69
2022/06/09 03:08:49;;;;;;;1999.90;999.90;;;;;;;16.79;70.36;94802.19;5009573;28;20060;-69
2022/06/09 03:11:15;;;;;;;1999.90;999.90;;;;;;;17.01;69.64;94799.94;5009804;28;20127;-69
2022/06/09 03:13:42;;;;;;;1999.90;999.90;;;;;;;17.09;69.68;94821.22;5009903;28;20041;-69
2022/06/09 03:16:09;;;;;;;1999.90;999.90;;;;;;;17.10;68.58;94805.88;5009741;28;20084;-69
2022/06/09 03:18:34;;;;;;;1999.90;999.90;;;;;;;17.63;67.20;94800.75;5009216;28;20029;-69
2022/06/09 03:21:00;;;;;;;1999.90;999.90;;;;;;;18.08;66.15;94851.16;5009823;28;20030;-69
2022/06/09 03:23:25;;;;;;;1999.90;999.90;;;;;;;17.61;66.63;94795.72;5009743;28;20022;-69
2022/06/09 03:25:51;;;;;;;1999.90;999.90;;;;;;;17.92;65.70;94821.69;5009791;28;20483;-69
2022/06/09 03:28:16;;;;;;;1999.90;999.90;;;;;;;17.61;66.20;94819.94;5009200;28;20112;-69
2022/06/09 03:30:41;;;;;;;1999.90;999.90;;;;;;;17.03;67.90;94809.19;5009750;28;20398;-69
2022/06/09 03:33:07;;;;;;;1999.90;999.90;;;;;;;17.34;66.66;94804.81;5008244;28;20475;-69
2022/06/09 03:35:33;;;;;;;1999.90;999.90;;;;;;;18.26;65.19;94848.75;5009637;28;20061;-69
2022/06/09 03:37:58;;;;;;;1999.90;999.90;;;;;;;18.22;64.65;94880.25;5009384;28;20471;-69
2022/06/09 03:40:25;;;;;;;1999.90;999.90;;;;;;;18.17;64.73;94824.03;5009314;28;20029;-69
2022/06/09 03:42:51;;;;;;;1999.90;999.90;;;;;;;18.21;63.90;94843.69;5009721;28;20030;-69
2022/06/09 03:45:17;;;;;;;1999.90;999.90;;;;;;;18.22;63.48;94822.91;5009415;28;20022;-69
2022/06/09 03:47:44;;;;;;;1999.90;999.90;;;;;;;18.24;64.53;94856.44;5009682;28;20492;-69
2022/06/09 03:50:16;;;;;;;1999.90;999.90;;;;;;;18.30;63.94;94862.28;5009294;28;20064;-68
2022/06/09 03:52:41;;;;;;;1999.90;999.90;;;;;;;18.24;64.35;94887.97;5009625;28;20478;-69
2022/06/09 03:55:07;;;;;;;1999.90;999.90;;;;;;;17.58;65.16;94846.75;5011885;28;20037;-69
2022/06/09 03:57:32;;;;;;;1999.90;999.90;;;;;;;17.81;64.54;94819.91;5011810;28;20084;-69
2022/06/09 03:59:58;;;;;;;1999.90;999.90;;;;;;;17.99;64.20;94836.38;5012634;28;20490;-69
2022/06/09 04:02:26;;;;;;;1999.90;999.90;;;;;;;17.88;64.78;94828.91;5012744;28;20030;-69
2022/06/09 04:04:52;;;;;;;1999.90;999.90;;;;;;;18.35;63.87;94856.59;5011606;28;20026;-69
2022/06/09 04:07:18;;;;;;;1999.90;999.90;;;;;;;18.48;63.97;94881.41;5012721;28;20038;-69
2022/06/09 04:09:44;;;;;;;1999.90;999.90;;;;;;;18.49;63.21;94837.97;5012358;28;20026;-69
2022/06/09 04:12:09;;;;;;;1999.90;999.90;;;;;;;18.78;62.30;94876.91;5012813;28;20076;-69
2022/06/09 04:14:35;;;;;;;1999.90;999.90;;;;;;;18.10;63.03;94848.09;5012496;28;20069;-68
2022/06/09 04:17:00;;;;;;;1999.90;999.90;;;;;;;18.48;63.48;94898.38;5012733;28;20022;-69
2022/06/09 04:19:26;;;;;;;1999.90;999.90;;;;;;;18.09;63.18;94825.03;5010897;28;20022;-69
2022/06/09 04:21:52;;;;;;;1999.90;999.90;;;;;;;18.55;62.57;94860.00;5012745;28;20022;-69
2022/06/09 04:24:18;;;;;;;1999.90;999.90;;;;;;;19.08;61.55;94860.78;5012462;28;20022;-70
2022/06/09 04:26:44;;;;;;;1999.90;999.90;;;;;;;18.36;62.87;94895.84;5012583;28;20037;-70
2022/06/09 04:29:11;;;;;;;1999.90;999.90;;;;;;;17.91;64.48;94841.66;5012053;28;20076;-69
2022/06/09 04:31:39;;;;;;;1999.90;999.90;;;;;;;17.76;65.31;94895.53;5012367;28;20026;-69
2022/06/09 04:34:04;;;;;;;1999.90;999.90;;;;;;;17.88;65.25;94914.22;5012268;28;20022;-69
2022/06/09 04:36:30;;;;;;;1999.90;999.90;;;;;;;17.96;63.67;94851.31;5012235;28;20117;-70
2022/06/09 04:38:55;;;;;;;1999.90;999.90;;;;;;;17.75;64.39;94867.84;5011946;28;20030;-69
2022/06/09 04:41:21;;;;;;;1999.90;999.90;;;;;;;18.60;63.81;94916.25;5012132;28;20430;-70
2022/06/09 04:43:47;;;;;;;1999.90;999.90;;;;;;;18.27;63.00;94874.56;5012007;28;20125;-70
2022/06/09 04:46:17;;;;;;;1999.90;999.90;;;;;;;17.76;63.58;94853.28;5012152;28;20036;-69
2022/06/09 04:48:42;;;;;;;1999.90;999.90;;;;;;;18.26;62.68;94853.38;5011895;28;20495;-69
2022/06/09 04:51:10;;;;;;;1999.90;999.90;;;;;;;18.61;63.13;94905.13;5012103;28;20135;-69
2022/06/09 04:53:37;;;;;;;1999.90;999.90;;;;;;;18.10;64.42;94926.94;5011917;28;20030;-69
2022/06/09 04:56:02;;;;;;;1999.90;999.90;;;;;;;17.32;65.36;94895.78;5012084;28;20197;-70
2022/06/09 04:58:28;;;;;;;1999.90;999.90;;;;;;;17.83;65.83;94927.97;5011432;28;20498;-70
2022/06/09 05:00:53;;;;;;;1999.90;999.90;;;;;;;18.12;64.24;94908.53;5011727;28;20026;-69
2022/06/09 05:03:20;;;;;;;1999.90;999.90;;;;;;;18.02;63.70;94847.22;5011837;28;20471;-69
2022/06/09 05:05:47;;;;;;;1999.90;999.90;;;;;;;17.83;65.23;94926.06;5011040;28;20116;-70
2022/06/09 05:08:13;;;;;;;1999.90;999.90;;;;;;;17.73;64.67;94882.81;5011283;28;20033;-69
2022/06/09 05:10:44;;;;;;;1999.90;999.90;;;;;;;17.89;65.78;94926.53;5010182;28;20471;-69
2022/06/09 05:13:10;;;;;;;1999.90;999.90;;;;;;;17.70;65.75;94929.97;5011663;28;20034;-69
2022/06/09 05:15:43;;;;;;;1999.90;999.90;;;;;;;17.35;66.22;94933.50;5011177;28;20041;-69
2022/06/09 05:18:11;;;;;;;1999.90;999.90;;;;;;;17.96;63.74;94845.16;5011042;28;20056;-70
2022/06/09 05:20:36;;;;;;;1999.90;999.90;;;;;;;18.02;64.55;94929.88;5011303;28;20029;-70
2022/06/09 05:23:02;;;;;;;1999.90;999.90;;;;;;;18.05;63.45;94900.31;5011283;28;20029;-70
2022/06/09 05:25:27;;;;;;;1999.90;999.90;;;;;;;18.91;61.22;94866.72;5011044;28;20026;-69
2022/06/09 05:27:53;;;;;;;1999.90;999.90;;;;;;;18.62;61.11;94913.97;5011081;28;20026;-69
2022/06/09 05:30:21;;;;;;;1999.90;999.90;;;;;;;18.57;61.26;94942.00;5010851;28;20105;-70
2022/06/09 05:32:47;;;;;;;1999.90;999.90;;;;;;;18.18;62.59;94885.56;5009816;28;20039;-69
2022/06/09 05:35:13;;;;;;;1999.90;999.90;;;;;;;18.31;62.15;94904.22;5011252;28;20030;-69
2022/06/09 05:45:55;;;;;;;1999.90;999.90;;;;;;;18.50;62.08;94955.34;5011361;28;20049;-69
2022/06/09 05:48:21;;;;;;;1999.90;999.90;;;;;;;17.64;64.68;94951.00;5010450;28;20034;-69
2022/06/09 05:50:47;;;;;;;1999.90;999.90;;;;;;;18.06;64.10;94953.00;5011000;28;20053;-69
2022/06/09 05:53:12;;;;;;;1999.90;999.90;;;;;;;17.36;65.74;94910.88;5009368;28;20119;-69
2022/06/09 05:55:38;;;;;;;1999.90;999.90;;;;;;;17.16;65.91;94906.59;5010973;28;20034;-69
2022/06/09 05:58:03;;;;;;;1999.90;999.90;;;;;;;17.18;66.09;94919.69;5010365;28;20026;-68
2022/06/09 06:00:28;;;;;;;1999.90;999.90;;;;;;;17.76;64.86;94923.25;5009559;28;20021;-72
2022/06/09 06:02:54;;;;;;;1999.90;999.90;;;;;;;17.79;64.84;94976.31;5010790;28;20029;-71
2022/06/09 06:08:03;;;;;;;1999.90;999.90;;;;;;;17.08;65.17;94931.75;5010595;28;20032;-68
2022/06/09 06:10:29;;;;;;;1999.90;999.90;;;;;;;18.34;63.20;94968.91;5010482;28;20029;-67
2022/06/09 06:12:54;;;;;;;1999.90;999.90;;;;;;;17.35;65.23;94956.91;5009289;28;20199;-68
2022/06/09 06:15:19;;;;;;;1999.90;999.90;;;;;;;17.71;65.14;94982.66;5010582;28;20037;-69
2022/06/09 06:17:45;;;;;;;1999.90;999.90;;;;;;;17.35;65.54;94989.16;5009820;28;20025;-70
2022/06/09 06:20:10;;;;;;;1999.90;999.90;;;;;;;17.35;66.00;94999.91;5010036;28;20022;-70
2022/06/09 06:22:36;;;;;;;1999.90;999.90;;;;;;;16.83;66.72;94990.28;5010415;28;20026;-69
2022/06/09 06:25:02;;;;;;;1999.90;999.90;;;;;;;16.99;67.03;94999.09;5010638;28;20033;-69
2022/06/09 06:27:28;;;;;;;1999.90;999.90;;;;;;;18.36;63.86;94993.56;5009930;28;20105;-69
2022/06/09 06:29:54;;;;;;;1999.90;999.90;;;;;;;18.41;61.89;94997.88;5009892;28;20022;-65
2022/06/09 06:32:19;;;;;;;1999.90;999.90;;;;;;;19.30;60.42;94999.41;5009398;28;20394;-65
2022/06/09 06:34:45;;;;;;;1999.90;999.90;;;;;;;19.96;57.63;95003.44;5009973;28;20030;-66
2022/06/09 06:37:10;;;;;;;1999.90;999.90;;;;;;;20.81;56.63;95008.22;5009648;28;20109;-65
2022/06/09 06:39:35;;;;;;;1999.90;999.90;;;;;;;21.19;53.88;95011.59;5009391;28;20025;-66
2022/06/09 06:42:00;;;;;;;1999.90;999.90;;;;;;;19.28;58.10;95025.94;5010000;28;20022;-65
2022/06/09 06:44:26;;;;;;;1999.90;999.90;;;;;;;19.54;58.55;95016.31;5023001;28;20449;-65
2022/06/09 06:46:51;;;;;;;1999.90;999.90;;;;;;;18.99;58.77;95019.34;5028762;28;20029;-65
2022/06/09 06:49:16;;;;;;;1999.90;999.90;;;;;;;19.71;57.51;95022.00;5029179;28;20021;-65
2022/06/09 06:51:42;;;;;;;1999.90;999.90;;;;;;;19.90;56.93;95020.28;5028128;28;20095;-65
2022/06/09 06:54:08;;;;;;;1999.90;999.90;;;;;;;19.10;58.48;95014.91;5029211;28;20034;-65
2022/06/09 06:56:35;;;;;;;1999.90;999.90;;;;;;;19.07;58.79;95022.91;5029106;28;20026;-65
2022/06/09 06:59:01;;;;;;;1999.90;999.90;;;;;;;19.17;58.29;95025.78;5029064;28;20063;-66
2022/06/09 07:01:26;;;;;;;1999.90;999.90;;;;;;;19.43;57.35;95025.00;5029338;28;20028;-66
2022/06/09 07:03:54;;;;;;;1999.90;999.90;;;;;;;19.13;58.78;95034.94;5029394;28;20026;-66
2022/06/09 07:06:19;;;;;;;1999.90;999.90;;;;;;;18.30;60.73;95030.00;5029153;28;20025;-66
2022/06/09 07:08:45;;;;;;;1999.90;999.90;;;;;;;18.56;60.48;95044.72;5028832;28;20028;-66
2022/06/09 07:11:12;;;;;;;1999.90;999.90;;;;;;;18.72;59.73;95037.34;5029434;28;20035;-66
2022/06/09 07:13:37;;;;;;;1999.90;999.90;;;;;;;19.00;57.98;95009.34;5028931;28;20033;-73
2022/06/09 07:16:05;;;;;;;1999.90;999.90;;;;;;;18.91;58.00;95017.66;5029766;28;20435;-67
2022/06/09 07:18:31;;;;;;;1999.90;999.90;;;;;;;18.87;57.37;95012.19;5027865;28;20117;-66
2022/06/09 07:20:57;;;;;;;1999.90;999.90;;;;;;;18.81;57.31;95037.88;5029119;28;20060;-68
2022/06/09 07:23:23;;;;;;;1999.90;999.90;;;;;;;19.08;57.05;95035.25;5029789;28;20030;-66
2022/06/09 07:25:48;;;;;;;1999.90;999.90;;;;;;;19.24;57.74;95027.81;5029587;28;20032;-67
2022/06/09 07:28:13;;;;;;;1999.90;999.90;;;;;;;19.34;56.82;95023.72;5030492;28;20017;-67
2022/06/09 07:30:40;;;;;;;1999.90;999.90;;;;;;;19.66;55.48;95037.72;5033268;28;20132;-68
2022/06/09 07:33:05;;;;;;;1999.90;999.90;;;;;;;19.55;55.71;95034.84;5033285;28;20029;-68
2022/06/09 07:35:34;;;;;;;1999.90;999.90;;;;;;;19.63;55.19;95046.53;5031982;28;20021;-74
2022/06/09 07:37:59;;;;;;;1999.90;999.90;;;;;;;18.84;56.19;95039.88;5032889;28;20022;-67
2022/06/09 07:40:24;;;;;;;1999.90;999.90;;;;;;;18.75;57.25;95030.47;5032957;28;20044;-67
2022/06/09 07:42:50;;;;;;;1999.90;999.90;;;;;;;17.94;59.51;95050.03;5032668;28;20021;-67
2022/06/09 07:45:16;;;;;;;1999.90;999.90;;;;;;;16.63;65.90;95060.00;5032956;28;20053;-65
2022/06/09 07:47:42;;;;;;;1999.90;999.90;;;;;;;15.50;75.82;95073.59;5033051;28;20029;-66
2022/06/09 07:50:08;;;;;;;1999.90;999.90;;;;;;;14.57;79.93;95076.72;5030918;28;20064;-68
2022/06/09 07:52:34;;;;;;;1999.90;999.90;;;;;;;15.02;80.59;95072.47;5031468;28;20091;-68
2022/06/09 07:55:00;;;;;;;1999.90;999.90;;;;;;;14.82;81.31;95074.88;5031379;28;20041;-69
2022/06/09 07:57:25;;;;;;;1999.90;999.90;;;;;;;15.16;81.60;95077.50;5033803;28;20025;-70
2022/06/09 07:59:50;;;;;;;1999.90;999.90;;;;;;;15.22;81.06;95076.94;5038574;28;20021;-70
2022/06/09 08:02:16;;;;;;;1999.90;999.90;;;;;;;15.17;82.06;95082.53;5039344;28;20406;-70
2022/06/09 08:04:41;;;;;;;1999.90;999.90;;;;;;;15.41;80.04;95072.94;5031369;28;20457;-70
2022/06/09 08:07:06;;;;;;;1999.90;999.90;;;;;;;14.90;80.97;95101.91;5031084;28;20091;-67
2022/06/09 08:09:32;;;;;;;1999.90;999.90;;;;;;;14.72;81.80;95093.28;5032154;28;20025;-69
2022/06/09 08:11:58;;;;;;;1999.90;999.90;;;;;;;15.38;81.11;95090.47;5030826;28;20021;-68
2022/06/09 08:14:24;;;;;;;1999.90;999.90;;;;;;;15.80;79.83;95099.06;5032312;28;20430;-70
2022/06/09 08:16:49;;;;;;;1999.90;999.90;;;;;;;15.85;78.56;95106.09;5031078;28;20061;-69
2022/06/09 08:19:14;;;;;;;1999.90;999.90;;;;;;;15.87;79.50;95103.88;5032185;28;20021;-70
2022/06/09 08:21:41;;;;;;;1999.90;999.90;;;;;;;16.32;77.71;95103.63;5031011;28;20456;-70
2022/06/09 08:24:07;;;;;;;1999.90;999.90;;;;;;;16.25;77.17;95114.16;5032198;28;20071;-69
2022/06/09 08:26:32;;;;;;;1999.90;999.90;;;;;;;16.38;78.17;95109.56;5030784;28;20112;-70
2022/06/09 08:28:58;;;;;;;1999.90;999.90;;;;;;;16.23;76.89;95107.59;5030541;28;20192;-69
2022/06/09 08:31:23;;;;;;;1999.90;999.90;;;;;;;16.15;78.56;95105.81;5030922;28;20021;-69
2022/06/09 08:33:49;;;;;;;1999.90;999.90;;;;;;;16.42;77.74;95112.31;5031874;28;20033;-69
2022/06/09 08:36:14;;;;;;;1999.90;999.90;;;;;;;16.53;76.72;95121.44;5030969;28;20033;-73
2022/06/09 08:38:41;;;;;;;1999.90;999.90;;;;;;;16.24;76.56;95095.72;5031547;28;20433;-68
2022/06/09 08:41:17;;;;;;;1999.90;999.90;;;;;;;17.15;75.79;95115.47;5031294;28;20036;-69
2022/06/09 08:44:23;;;;;;;1999.90;999.90;;;;;;;15.94;77.99;95117.47;5031950;28;20359;-67
2022/06/09 08:46:55;;;;;;;1999.90;999.90;;;;;;;16.13;77.49;95132.22;5031833;28;20075;-68
2022/06/09 08:49:33;;;;;;;1999.90;999.90;;;;;;;16.03;77.06;95136.16;5031181;28;20025;-68
2022/06/09 08:52:08;;;;;;;1999.90;999.90;;;;;;;15.61;79.83;95141.75;5031870;28;20604;-67
2022/06/09 08:54:36;;;;;;;1999.90;999.90;;;;;;;16.43;77.90;95148.78;5031653;28;20156;-68
2022/06/09 08:57:12;;;;;;;1999.90;999.90;;;;;;;16.31;78.15;95146.91;5031704;28;20030;-68
2022/06/09 08:59:39;;;;;;;1999.90;999.90;;;;;;;16.49;75.90;95148.22;5030020;28;20018;-68
2022/06/09 09:02:34;;;;;;;1999.90;999.90;;;;;;;16.66;76.62;95141.75;5031639;28;20485;-69
2022/06/09 09:05:26;;;;;;;1999.90;999.90;;;;;;;16.23;77.85;95155.91;5031611;28;20078;-68
2022/06/09 09:07:55;;;;;;;1999.90;999.90;;;;;;;16.52;75.93;95160.94;5029042;28;20426;-69
2022/06/09 09:10:31;;;;;;;1999.90;999.90;;;;;;;16.58;76.96;95162.28;5030204;28;20083;-68
2022/06/09 09:13:03;;;;;;;1999.90;999.90;;;;;;;16.82;75.04;95152.56;5031151;28;20037;-67
2022/06/09 09:15:55;;;;;;;;;;;;;;;17.48;73.00;95156.56;5031580;28;20505;-67
2022/06/09 09:18:52;;;;;;;1999.90;999.90;;;;;;;16.86;75.75;95161.53;5026621;28;19968;-67
2022/06/09 09:21:44;;;;;;;1999.90;999.90;;;;;;;17.29;73.37;95162.63;5029413;28;20167;-67
2022/06/09 09:24:22;;;;;;;1999.90;999.90;;;;;;;16.79;72.88;95167.50;5031259;28;20394;-68
2022/06/09 09:27:01;;;;;;;1999.90;999.90;;;;;;;17.59;71.18;95163.75;5029542;28;20354;-68
2022/06/09 09:29:42;;;;;;;1999.90;999.90;;;;;;;17.90;68.94;95160.28;5029219;28;20383;-67
2022/06/09 09:32:16;;;;;;;1999.90;999.90;;;;;;;18.79;67.63;95166.81;5030724;28;20024;-68
2022/06/09 09:34:44;;;;;;;1999.90;999.90;;;;;;;18.57;67.06;95170.97;5030965;28;20022;-67
2022/06/09 09:37:21;;;;;;;1999.90;999.90;;;;;;;18.94;65.23;95159.78;5030783;28;20030;-67
2022/06/09 09:39:53;;;;;;;1999.90;999.90;;;;;;;19.76;64.58;95158.53;5030375;28;20698;-67
2022/06/09 09:42:24;;;;;;;1999.90;999.90;;;;;;;19.60;63.37;95158.66;5029159;28;20029;-67
2022/06/09 09:45:01;;;;;;;1999.90;999.90;;;;;;;18.59;65.76;95163.31;5030755;28;20052;-68
2022/06/09 09:47:29;;;;;;;1999.90;999.90;;;;;;;18.31;64.99;95170.78;5030574;28;20022;-69
2022/06/09 09:50:02;;;;;;;1999.90;999.90;;;;;;;18.16;68.53;95159.72;5030259;28;20319;-69
2022/06/09 09:52:36;;;;;;;1999.90;999.90;;;;;;;17.40;67.01;95183.28;5029554;28;20022;-69
2022/06/09 09:55:01;;;;;;;1999.90;999.90;;;;;;;17.13;67.32;95176.81;5030465;28;20026;-68
2022/06/09 09:57:28;;;;;;;1999.90;999.90;;;;;;;17.32;68.89;95194.19;5029185;28;20036;-70
2022/06/09 09:59:56;;;;;;;1999.90;999.90;;;;;;;16.61;72.34;95201.09;5028915;28;20058;-69
2022/06/09 10:08:39;;;;;;;1999.90;999.90;;;;;;;14.85;78.72;95234.13;5030281;28;20048;-70
2022/06/09 10:14:00;;;;;;;1999.90;999.90;;;;;;;15.17;77.22;95235.25;5030162;28;19919;-69
2022/06/09 10:16:28;;;;;;;1999.90;999.90;;;;;;;15.70;75.61;95240.84;5030288;28;20048;-70
2022/06/09 10:18:58;;;;;;;1999.90;999.90;;;;;;;15.46;74.67;95236.22;5028585;28;20034;-70
2022/06/09 10:21:24;;;;;;;1999.90;999.90;;;;;;;16.13;74.22;95234.97;5030140;28;20022;-70
2022/06/09 10:23:59;;;;;;;1999.90;999.90;;;;;;;16.36;73.31;95216.47;5029698;28;20493;-69
2022/06/09 10:26:36;;;;;;;1999.90;999.90;;;;;;;17.29;73.45;95221.75;5029908;28;20131;-70
2022/06/09 10:29:13;;;;;;;1999.90;999.90;;;;;;;17.08;72.33;95222.75;5028433;28;20060;-70
2022/06/09 10:31:50;;;;;;;1999.90;999.90;;;;;;;17.72;72.21;95212.88;5028532;28;20040;-69
2022/06/09 10:35:00;;;;;;;1999.90;999.90;;;;;;;18.63;69.91;95217.25;5028391;28;20037;-70
2022/06/09 10:37:50;;;;;;;1999.90;999.90;;;;;;;19.44;70.92;95217.31;5026512;28;20579;-70
2022/06/09 10:40:41;;;;;;;1999.90;999.90;;;;;;;19.40;66.65;95216.50;5029327;28;20022;-70
2022/06/09 10:43:35;;;;;;;1999.90;999.90;;;;;;;20.19;69.69;95213.94;5029999;28;20030;-70
2022/06/09 10:46:13;;;;;;;1999.90;999.90;;;;;;;20.69;70.10;95211.97;5029803;28;20021;-70
2022/06/09 10:57:40;;;;;;;1999.90;999.90;;;;;;;20.39;69.95;95217.31;5029800;28;20096;-72
2022/06/09 11:00:13;;;;;;;1999.90;999.90;;;;;;;20.81;70.56;95205.56;5029296;28;20021;-70
2022/06/09 11:02:40;;;;;;;1999.90;999.90;;;;;;;21.32;70.29;95213.13;5031092;28;20033;-73
2022/06/09 11:05:06;;;;;;;1999.90;999.90;;;;;;;21.57;68.46;95207.19;5033091;28;20036;-75
2022/06/09 11:08:09;;;;;;;1999.90;999.90;;;;;;;22.47;69.38;95206.72;5034130;28;20034;-67
2022/06/09 11:10:53;;;;;;;1999.90;999.90;;;;;;;23.34;67.95;95195.91;5013903;28;21073;-68
2022/06/09 11:13:31;;;;;;;1999.90;999.90;;;;;;;24.34;67.17;95202.16;5032253;28;20029;-68
2022/06/09 11:16:10;;;;;;;1999.90;999.90;;;;;;;24.70;65.56;95191.22;5033712;28;20026;-70
2022/06/09 11:18:47;;;;;;;1999.90;999.90;;;;;;;24.57;61.08;95193.59;5033287;28;20033;-71
2022/06/09 11:21:30;;;;;;;1999.90;999.90;;;;;;;24.45;62.99;95199.44;5033465;28;20474;-70
2022/06/09 11:24:04;;;;;;;1999.90;999.90;;;;;;;23.87;61.73;95200.63;5033472;28;20075;-70
2022/06/09 11:26:48;;;;;;;1999.90;999.90;;;;;;;23.32;63.63;95196.25;5032038;28;20028;-71
2022/06/09 11:29:19;;;;;;;1999.90;999.90;;;;;;;22.72;61.67;95199.50;5033164;28;20029;-68
2022/06/09 11:32:04;;;;;;;1999.90;999.90;;;;;;;20.41;63.49;95206.16;5032098;28;20029;-68
2022/06/09 11:34:36;;;;;;;1999.90;999.90;;;;;;;20.41;63.62;95208.84;5031550;28;20060;-68